createdAt,value
2023-05-14T00:06:53.495Z,6.9
2023-05-14T00:17:02.203Z,7.7
2023-05-14T00:27:10.755Z,7.38
2023-05-14T00:37:19.241Z,7.05
2023-05-14T00:47:28.620Z,7.38
2023-05-14T00:57:37.072Z,8.45
2023-05-14T01:07:45.654Z,7.65
2023-05-14T01:17:54.214Z,7.58
2023-05-14T01:28:02.826Z,7.15
2023-05-14T01:38:11.262Z,8.31
2023-05-14T01:48:19.956Z,9.15
2023-05-14T01:58:28.470Z,9.13
2023-05-14T02:08:37.045Z,8.87
2023-05-14T02:18:45.717Z,8.16
2023-05-14T02:28:54.284Z,8.68
2023-05-14T02:39:02.792Z,8.45
2023-05-14T02:49:11.427Z,7.62
2023-05-14T02:59:19.961Z,8
2023-05-14T03:09:28.552Z,6.38
2023-05-14T03:19:37.110Z,8.14
2023-05-14T03:29:45.707Z,8.42
2023-05-14T03:39:54.177Z,8.8
2023-05-14T03:50:02.906Z,9.39
2023-05-14T04:00:11.465Z,8.25
2023-05-14T04:10:20.048Z,8.68
2023-05-14T04:20:28.680Z,7.78
2023-05-14T04:30:37.184Z,8.29
2023-05-14T04:40:45.774Z,9.35
2023-05-14T04:50:54.297Z,9.18
2023-05-14T05:01:02.910Z,9.72
2023-05-14T05:11:11.489Z,10.83
2023-05-14T05:21:20.073Z,9.76
2023-05-14T05:31:28.431Z,11.28
2023-05-14T05:41:36.898Z,9.26
2023-05-14T05:51:45.431Z,8.06
2023-05-14T06:01:54.074Z,9.02
2023-05-14T06:12:02.558Z,7.4
2023-05-14T06:22:11.196Z,7.1
2023-05-14T06:32:19.897Z,6.02
2023-05-14T06:42:28.491Z,5.82
2023-05-14T06:52:37.029Z,4.48
2023-05-14T07:02:45.740Z,3.44
2023-05-14T07:12:54.191Z,3.8
2023-05-14T07:23:02.704Z,3.37
2023-05-14T07:33:11.281Z,3.7
2023-05-14T07:43:19.665Z,3.26
2023-05-14T07:53:28.300Z,3.02
2023-05-14T08:03:37.039Z,2.85
2023-05-14T08:13:45.517Z,3.3
2023-05-14T08:23:54.119Z,3.12
2023-05-14T08:34:03.633Z,2.52
2023-05-14T08:44:12.100Z,1.95
2023-05-14T08:54:32.808Z,1.96
2023-05-14T09:04:21.418Z,1.69
2023-05-14T09:14:30.016Z,1.36
2023-05-14T09:24:38.645Z,1.37
2023-05-14T09:34:47.140Z,1.04
2023-05-14T09:44:55.674Z,0.61
2023-05-14T09:55:04.219Z,1.02
2023-05-14T10:05:12.849Z,1.28
2023-05-14T10:15:21.457Z,1
2023-05-14T10:25:30.063Z,0.91
2023-05-14T10:35:38.612Z,1.09
2023-05-14T10:45:47.204Z,1.18
2023-05-14T10:55:55.836Z,1.36
2023-05-14T11:06:04.447Z,1.24
2023-05-14T11:16:22.349Z,1.21
2023-05-14T11:26:21.597Z,1.42
2023-05-14T11:36:28.208Z,1.51
2023-05-14T11:46:36.858Z,1.46
2023-05-14T11:56:45.316Z,1.71
2023-05-14T12:06:53.797Z,1.17
2023-05-14T12:17:02.271Z,1.16
2023-05-14T12:27:10.950Z,1.29
2023-05-14T12:37:19.558Z,1.31
2023-05-14T12:47:28.113Z,1.19
2023-05-14T12:57:36.660Z,1.46
2023-05-14T13:07:45.240Z,1.29
2023-05-14T13:17:53.926Z,1.44
2023-05-14T13:28:02.540Z,1.98
2023-05-14T13:38:12.347Z,1.88
2023-05-14T13:48:20.893Z,2.78
2023-05-14T13:58:29.487Z,3.08
2023-05-14T14:08:38.126Z,3.64
2023-05-14T14:18:46.649Z,4.08
2023-05-14T14:28:55.712Z,2.9
2023-05-14T14:39:04.594Z,2.02
2023-05-14T14:49:14.278Z,2.17
2023-05-14T14:59:22.925Z,2.51
2023-05-14T15:09:31.498Z,1.99
2023-05-14T15:19:40.242Z,2.28
2023-05-14T15:29:49.090Z,1.92
2023-05-14T15:39:58.149Z,1.61
2023-05-14T15:50:07.013Z,1.42
2023-05-14T16:00:15.596Z,1.75
2023-05-14T16:10:24.318Z,1.67
2023-05-14T16:20:33.000Z,1.58
2023-05-14T16:30:42.592Z,1.87
2023-05-14T16:40:51.279Z,2.09
2023-05-14T16:51:01.739Z,2.44
2023-05-14T17:00:59.952Z,2.19
2023-05-14T17:11:10.200Z,1.94
2023-05-14T17:21:09.067Z,2.13
2023-05-14T17:31:17.625Z,1.37
2023-05-14T17:41:26.463Z,1.37
2023-05-14T17:51:35.146Z,2.03
2023-05-14T18:01:44.800Z,1.71
2023-05-14T18:11:55.453Z,1.82
2023-05-14T18:22:01.707Z,2.49
2023-05-14T18:32:11.274Z,1.42
2023-05-14T18:42:19.912Z,1.89
2023-05-14T18:52:29.874Z,2.11
2023-05-14T19:02:44.331Z,2.44
2023-05-14T19:12:47.048Z,3.52
2023-05-14T19:22:45.769Z,3.06
2023-05-14T19:32:54.382Z,2.24
2023-05-14T19:43:02.972Z,2.84
2023-05-14T19:53:12.551Z,2.36
2023-05-14T20:03:21.644Z,14.54
2023-05-14T20:13:29.871Z,4.38
2023-05-14T20:23:39.020Z,3.06
2023-05-14T20:33:53.919Z,3.03
2023-05-14T20:44:00.848Z,3.52
2023-05-14T20:54:00.694Z,22.82
2023-05-14T21:04:09.517Z,5.32
2023-05-14T21:14:18.201Z,3.44
2023-05-14T21:24:27.028Z,2.86
2023-05-14T21:34:36.962Z,2.77
2023-05-14T21:44:45.804Z,2.48
2023-05-14T21:54:54.389Z,2.17
2023-05-14T22:05:03.509Z,1.96
2023-05-14T22:15:12.119Z,2.05
2023-05-14T22:25:20.822Z,2
2023-05-14T22:35:29.429Z,3.53
2023-05-14T22:45:37.510Z,2.71
2023-05-14T22:55:46.284Z,2.72
2023-05-14T23:05:54.916Z,2.82
2023-05-14T23:16:03.550Z,2.28
2023-05-14T23:26:12.355Z,2.82
2023-05-14T23:36:21.167Z,3.13
2023-05-14T23:46:29.868Z,3.52
2023-05-14T23:56:38.278Z,3.69
